Time;durP1;ratioP1;P1;durP2;ratioP2;P2;SDS_P1;SDS_P2;PMS_P1;PMS_P2;Temp;Humidity;BMP_temperature;BMP_pressure;BME280_temperature;BME280_humidity;BME280_pressure;Samples;Min_cycle;Max_cycle;Signal;HPM_P1;HPM_P2
2024/01/22 00:01:00;;;;;;;26.45;14.23;;;;;;;-2.24;100.00;102091.91;5067391;28;20528;-78
2024/01/22 00:03:25;;;;;;;26.80;14.82;;;;;;;-2.31;100.00;102087.97;5067222;28;20025;-77
2024/01/22 00:05:51;;;;;;;28.15;14.35;;;;;;;-2.49;100.00;102092.44;5051721;28;20097;-77
2024/01/22 00:08:16;;;;;;;25.40;13.93;;;;;;;-2.83;100.00;102070.75;5070865;28;20036;-77
2024/01/22 00:10:42;;;;;;;49.92;24.08;;;;;;;-3.37;100.00;102057.09;5071385;28;20185;-77
2024/01/22 00:13:07;;;;;;;52.47;25.60;;;;;;;-3.34;100.00;102098.66;5053401;28;20559;-77
2024/01/22 00:15:35;;;;;;;30.13;16.02;;;;;;;-3.25;100.00;102076.47;5066829;28;20044;-78
2024/01/22 00:18:03;;;;;;;26.15;14.35;;;;;;;-3.26;100.00;102091.28;5091532;28;20054;-76
2024/01/22 00:20:29;;;;;;;26.67;14.43;;;;;;;-3.22;100.00;102096.34;5091870;28;20107;-77
2024/01/22 00:22:54;;;;;;;26.58;13.63;;;;;;;-3.29;100.00;102112.31;5053753;28;20507;-78
2024/01/22 00:25:22;;;;;;;22.58;12.88;;;;;;;-3.21;100.00;102101.47;5082360;28;20051;-77
2024/01/22 00:27:48;;;;;;;30.40;15.43;;;;;;;-3.15;100.00;102095.09;5072341;28;20032;-77
2024/01/22 00:30:13;;;;;;;30.23;14.48;;;;;;;-3.22;100.00;102097.19;5090920;28;20489;-78
2024/01/22 00:32:39;;;;;;;26.42;13.57;;;;;;;-3.09;100.00;102098.22;5056807;28;20025;-77
2024/01/22 00:35:04;;;;;;;20.92;12.57;;;;;;;-3.04;100.00;102096.22;5080571;28;20048;-77
2024/01/22 00:37:30;;;;;;;22.35;11.35;;;;;;;-3.09;100.00;102081.72;5091039;28;20082;-77
2024/01/22 00:39:57;;;;;;;21.15;11.07;;;;;;;-3.05;100.00;102104.13;5090758;28;20082;-78
2024/01/22 00:42:23;;;;;;;19.70;11.60;;;;;;;-3.16;100.00;102083.00;5090928;28;20535;-77
2024/01/22 00:44:49;;;;;;;21.02;10.95;;;;;;;-3.07;100.00;102091.16;5089113;28;20032;-77
2024/01/22 00:47:14;;;;;;;25.20;12.93;;;;;;;-3.11;100.00;102080.97;5090578;28;20028;-78
2024/01/22 00:49:41;;;;;;;27.05;17.05;;;;;;;-2.91;100.00;102113.84;5090360;28;20047;-77
2024/01/22 00:52:06;;;;;;;55.30;36.33;;;;;;;-2.77;100.00;102121.81;5080894;28;20580;-77
2024/01/22 00:54:32;;;;;;;21.35;11.57;;;;;;;-2.54;100.00;102109.28;5054141;28;20028;-78
2024/01/22 00:56:58;;;;;;;52.40;40.50;;;;;;;-2.86;100.00;102078.75;5071057;28;20032;-78
2024/01/22 00:59:24;;;;;;;29.27;17.00;;;;;;;-2.92;100.00;102094.75;5069978;28;20021;-77
2024/01/22 01:01:49;;;;;;;108.28;63.65;;;;;;;-3.18;100.00;102077.00;5052079;28;20107;-76
2024/01/22 01:04:14;;;;;;;51.80;32.50;;;;;;;-3.48;100.00;102064.59;5070546;28;20124;-78
2024/01/22 01:06:40;;;;;;;37.47;19.52;;;;;;;-3.63;100.00;102061.03;5071972;28;20029;-77
2024/01/22 01:09:06;;;;;;;20.35;10.70;;;;;;;-3.20;100.00;102082.28;5069803;28;20056;-77
2024/01/22 01:11:31;;;;;;;18.90;11.35;;;;;;;-2.99;100.00;102093.38;5069668;28;20028;-77
2024/01/22 01:13:57;;;;;;;18.58;10.48;;;;;;;-2.72;100.00;102105.88;5069962;28;20036;-77
2024/01/22 01:16:22;;;;;;;17.92;10.38;;;;;;;-2.77;100.00;102097.47;5084833;28;20046;-78
2024/01/22 01:18:48;;;;;;;20.85;10.88;;;;;;;-2.73;100.00;102110.25;5088613;28;20063;-77
2024/01/22 01:21:13;;;;;;;24.00;13.55;;;;;;;-2.98;100.00;102082.03;5071173;28;20044;-77
2024/01/22 01:23:39;;;;;;;58.97;41.78;;;;;;;-2.84;100.00;102104.75;5071764;28;20032;-77
2024/01/22 01:26:04;;;;;;;42.00;30.45;;;;;;;-3.24;100.00;102088.59;5089374;28;20791;-78
2024/01/22 01:28:30;;;;;;;18.05;9.23;;;;;;;-3.16;100.00;102060.34;5089939;28;20016;-78
2024/01/22 01:30:55;;;;;;;15.38;7.95;;;;;;;-2.88;99.79;102085.81;5090184;28;20408;-78
2024/01/22 01:33:20;;;;;;;16.83;8.18;;;;;;;-2.91;98.10;102093.81;5074557;28;20091;-78
2024/01/22 01:35:46;;;;;;;25.08;12.35;;;;;;;-2.75;99.36;102108.66;5072881;28;20036;-78
2024/01/22 01:38:12;;;;;;;28.58;16.02;;;;;;;-3.11;100.00;102094.00;5069521;28;20043;-77
2024/01/22 01:40:41;;;;;;;30.58;17.13;;;;;;;-3.13;100.00;102080.19;5069615;28;20489;-77
2024/01/22 01:43:06;;;;;;;30.58;17.25;;;;;;;-3.42;100.00;102077.34;5069423;28;20465;-77
2024/01/22 01:45:32;;;;;;;31.30;17.90;;;;;;;-3.22;100.00;102101.56;5073383;28;20083;-77
2024/01/22 01:47:57;;;;;;;33.83;17.45;;;;;;;-3.28;100.00;102108.78;5069465;28;20028;-79
2024/01/22 01:50:23;;;;;;;32.67;15.80;;;;;;;-3.41;100.00;102086.88;5051170;28;20035;-78
2024/01/22 01:52:50;;;;;;;28.70;15.88;;;;;;;-3.34;100.00;102090.84;5069485;28;20540;-78
2024/01/22 01:55:16;;;;;;;29.38;16.15;;;;;;;-3.55;100.00;102063.25;5070052;28;20037;-78
2024/01/22 01:57:43;;;;;;;26.63;15.60;;;;;;;-3.17;100.00;102103.00;5070505;28;20716;-78
2024/01/22 02:00:09;;;;;;;30.40;15.30;;;;;;;-3.22;100.00;102099.81;5089173;28;20020;-77
2024/01/22 02:02:38;;;;;;;29.90;15.18;;;;;;;-3.30;100.00;102100.19;5088798;28;20035;-78
2024/01/22 02:05:05;;;;;;;27.40;15.15;;;;;;;-3.35;100.00;102091.78;5070478;28;20036;-77
2024/01/22 02:07:30;;;;;;;29.27;14.60;;;;;;;-3.19;100.00;102080.53;5067096;28;20028;-78
2024/01/22 02:09:55;;;;;;;25.27;14.00;;;;;;;-3.24;100.00;102078.16;5071133;28;20623;-77
2024/01/22 02:12:21;;;;;;;25.40;12.82;;;;;;;-3.02;100.00;102093.53;5086233;28;20115;-78
2024/01/22 02:14:47;;;;;;;22.88;13.65;;;;;;;-3.18;100.00;102111.75;5068265;28;20295;-78
2024/01/22 02:17:13;;;;;;;29.50;14.35;;;;;;;-3.25;100.00;102098.19;5053155;28;20028;-79
2024/01/22 02:19:39;;;;;;;26.63;13.73;;;;;;;-3.21;100.00;102092.81;5068879;28;20029;-77
2024/01/22 02:22:05;;;;;;;25.67;13.98;;;;;;;-3.37;100.00;102085.78;5068638;28;20764;-77
2024/01/22 02:24:30;;;;;;;23.80;14.02;;;;;;;-3.69;100.00;102083.03;5069058;28;20040;-77
2024/01/22 02:26:56;;;;;;;27.63;14.20;;;;;;;-3.42;100.00;102087.78;5070612;28;20029;-78
2024/01/22 02:29:21;;;;;;;25.02;13.02;;;;;;;-3.50;100.00;102084.72;5067882;28;20047;-78
2024/01/22 02:31:49;;;;;;;25.10;14.82;;;;;;;-3.53;100.00;102090.09;5068580;28;20374;-78
2024/01/22 02:34:18;;;;;;;25.73;13.82;;;;;;;-3.52;100.00;102107.41;5050263;28;20048;-78
2024/01/22 02:36:45;;;;;;;30.98;15.10;;;;;;;-3.55;100.00;102091.94;5072409;28;20032;-78
2024/01/22 02:39:14;;;;;;;32.63;16.17;;;;;;;-3.74;100.00;102069.41;5068321;28;20036;-78
2024/01/22 02:41:40;;;;;;;26.83;15.40;;;;;;;-3.67;100.00;102086.41;5068168;28;20081;-78
2024/01/22 02:44:06;;;;;;;34.58;17.38;;;;;;;-3.67;100.00;102091.63;5050031;28;20586;-78
2024/01/22 02:46:31;;;;;;;29.55;17.63;;;;;;;-3.55;100.00;102084.94;5069928;28;20573;-77
2024/01/22 02:48:58;;;;;;;31.25;16.95;;;;;;;-3.70;100.00;102083.97;5068020;28;20027;-78
2024/01/22 02:51:24;;;;;;;34.20;17.38;;;;;;;-3.66;100.00;102101.16;5068101;28;20020;-78
2024/01/22 02:53:50;;;;;;;33.50;17.48;;;;;;;-3.81;100.00;102075.81;5067894;28;20481;-78
2024/01/22 02:56:21;;;;;;;31.58;17.48;;;;;;;-3.74;100.00;102095.47;5070207;28;20063;-78
2024/01/22 02:58:47;;;;;;;32.75;17.40;;;;;;;-3.66;100.00;102103.75;5088167;28;20031;-79
2024/01/22 03:01:13;;;;;;;32.17;17.83;;;;;;;-3.75;100.00;102108.56;5087500;28;20034;-78
2024/01/22 03:03:40;;;;;;;35.63;17.38;;;;;;;-3.95;100.00;102076.50;5087584;28;20070;-78
2024/01/22 03:06:06;;;;;;;33.60;17.77;;;;;;;-3.97;100.00;102067.06;5086528;28;20493;-78
2024/01/22 03:08:31;;;;;;;33.90;18.60;;;;;;;-3.80;100.00;102079.25;5051300;28;20040;-78
2024/01/22 03:10:57;;;;;;;35.15;19.38;;;;;;;-3.73;100.00;102099.75;5067946;28;20389;-78
2024/01/22 03:13:22;;;;;;;33.65;18.52;;;;;;;-3.74;100.00;102105.91;5067371;28;20731;-78
2024/01/22 03:15:48;;;;;;;36.10;17.95;;;;;;;-3.84;100.00;102069.00;5067149;28;20128;-78
2024/01/22 03:18:13;;;;;;;43.55;20.67;;;;;;;-3.92;100.00;102081.56;5052141;28;20028;-78
2024/01/22 03:20:38;;;;;;;39.55;19.05;;;;;;;-3.88;100.00;102103.97;5049775;28;20120;-78
2024/01/22 03:23:04;;;;;;;36.65;19.05;;;;;;;-4.01;100.00;102084.63;5067706;28;20032;-78
2024/01/22 03:25:30;;;;;;;49.20;21.65;;;;;;;-3.96;100.00;102085.25;5067778;28;20036;-78
2024/01/22 03:27:55;;;;;;;48.60;22.98;;;;;;;-4.14;100.00;102080.94;5062338;28;20111;-78
2024/01/22 03:30:21;;;;;;;42.45;21.30;;;;;;;-3.99;100.00;102100.19;5069774;28;20107;-78
2024/01/22 03:32:46;;;;;;;39.92;19.08;;;;;;;-3.85;100.00;102097.75;5088039;28;20397;-79
2024/01/22 03:35:12;;;;;;;39.90;20.35;;;;;;;-3.99;100.00;102089.75;5070443;28;20103;-78
2024/01/22 03:37:37;;;;;;;40.58;20.80;;;;;;;-3.87;100.00;102083.94;5052108;28;20039;-78
2024/01/22 03:40:03;;;;;;;42.67;21.73;;;;;;;-3.89;100.00;102085.78;5049345;28;20023;-78
2024/01/22 03:42:28;;;;;;;40.67;20.02;;;;;;;-4.01;100.00;102082.00;5049704;28;20063;-78
2024/01/22 03:44:54;;;;;;;38.70;18.92;;;;;;;-3.87;100.00;102120.44;5049895;28;20482;-79
2024/01/22 03:47:19;;;;;;;38.83;19.60;;;;;;;-4.05;100.00;102096.94;5068538;28;20036;-79
2024/01/22 03:49:45;;;;;;;31.90;18.27;;;;;;;-3.77;99.95;102116.47;5049679;28;20037;-78
2024/01/22 03:52:10;;;;;;;39.28;20.63;;;;;;;-3.72;100.00;102108.41;5068458;28;20032;-78
2024/01/22 03:54:35;;;;;;;34.78;17.45;;;;;;;-3.69;96.55;102113.50;5061386;28;20028;-78
2024/01/22 03:57:06;;;;;;;32.33;18.60;;;;;;;-3.93;98.34;102105.09;5091664;28;20470;-79
2024/01/22 03:59:33;;;;;;;37.10;18.55;;;;;;;-3.95;98.01;102101.72;5077547;28;20028;-79
2024/01/22 04:01:58;;;;;;;29.95;16.90;;;;;;;-3.98;96.65;102114.88;5058764;28;20060;-78
2024/01/22 04:04:23;;;;;;;37.00;19.13;;;;;;;-4.27;98.18;102102.38;5058676;28;20109;-78
2024/01/22 04:06:49;;;;;;;36.53;19.17;;;;;;;-4.11;94.56;102112.88;5059808;28;20025;-79
2024/01/22 04:09:14;;;;;;;30.50;16.73;;;;;;;-4.17;95.85;102135.78;5062305;28;20056;-79
2024/01/22 04:11:41;;;;;;;34.95;18.08;;;;;;;-4.53;98.31;102095.75;5075309;28;20560;-77
2024/01/22 04:14:06;;;;;;;34.25;18.60;;;;;;;-4.41;97.95;102124.75;5078059;28;20038;-78
2024/01/22 04:16:31;;;;;;;35.97;18.10;;;;;;;-4.47;97.74;102105.91;5076915;28;20024;-79
2024/01/22 04:18:57;;;;;;;35.58;18.65;;;;;;;-4.46;98.34;102123.19;5073850;28;20036;-78
2024/01/22 04:21:22;;;;;;;38.67;22.02;;;;;;;-4.67;100.00;102090.34;5094640;28;20028;-78
2024/01/22 04:23:47;;;;;;;32.33;18.95;;;;;;;-4.57;97.56;102093.38;5093083;28;20028;-78
2024/01/22 04:26:14;;;;;;;30.38;17.17;;;;;;;-4.73;99.55;102095.84;5091617;28;20489;-78
2024/01/22 04:28:39;;;;;;;35.67;20.52;;;;;;;-4.71;99.27;102112.22;5077354;28;20031;-77
2024/01/22 04:31:06;;;;;;;37.08;19.25;;;;;;;-4.86;100.00;102093.78;5050752;28;20032;-78
2024/01/22 04:33:32;;;;;;;34.35;18.10;;;;;;;-4.73;99.05;102101.03;5068627;28;20033;-78
2024/01/22 04:35:57;;;;;;;34.67;17.23;;;;;;;-4.69;97.55;102100.00;5067737;28;20035;-78
2024/01/22 04:38:23;;;;;;;32.50;17.20;;;;;;;-4.79;99.32;102096.13;5051933;28;20501;-78
2024/01/22 04:40:48;;;;;;;33.85;17.20;;;;;;;-4.85;100.00;102125.84;5067183;28;20024;-77
2024/01/22 04:43:15;;;;;;;29.80;16.60;;;;;;;-4.95;100.00;102115.00;5048955;28;20539;-77
2024/01/22 04:45:41;;;;;;;32.00;16.75;;;;;;;-4.54;98.95;102146.13;5048705;28;20402;-78
2024/01/22 04:48:06;;;;;;;33.67;16.75;;;;;;;-4.66;98.78;102131.94;5069315;28;20063;-78
2024/01/22 04:50:32;;;;;;;29.75;16.48;;;;;;;-4.72;98.05;102105.31;5048347;28;20035;-78
2024/01/22 04:52:57;;;;;;;29.25;15.93;;;;;;;-4.78;98.10;102103.84;5050000;28;20025;-78
2024/01/22 04:55:23;;;;;;;34.00;16.80;;;;;;;-4.59;98.16;102153.34;5070276;28;20029;-78
2024/01/22 04:57:48;;;;;;;36.17;17.58;;;;;;;-4.51;98.61;102158.19;5054389;28;20042;-78
2024/01/22 05:00:14;;;;;;;33.67;16.75;;;;;;;-4.62;99.24;102137.81;5070086;28;20439;-78
2024/01/22 05:02:40;;;;;;;30.88;16.15;;;;;;;-4.56;97.72;102121.94;5070533;28;20408;-78
2024/01/22 05:05:06;;;;;;;30.80;16.35;;;;;;;-4.45;97.52;102137.91;5069550;28;20028;-78
2024/01/22 05:07:31;;;;;;;35.90;18.50;;;;;;;-4.59;95.35;102127.28;5069711;28;20090;-78
2024/01/22 05:10:02;;;;;;;33.13;16.88;;;;;;;-4.57;95.94;102151.50;5072588;28;20044;-78
2024/01/22 05:12:27;;;;;;;35.15;18.00;;;;;;;-4.59;98.05;102153.34;5070134;28;20029;-78
2024/01/22 05:14:53;;;;;;;28.27;15.88;;;;;;;-4.49;97.25;102164.19;5069030;28;20110;-78
2024/01/22 05:17:19;;;;;;;31.15;16.45;;;;;;;-4.58;98.71;102155.00;5069727;28;20489;-78
2024/01/22 05:19:44;;;;;;;29.77;16.55;;;;;;;-4.60;98.74;102138.59;5068228;28;20071;-78
2024/01/22 05:22:09;;;;;;;31.30;15.55;;;;;;;-4.78;98.97;102116.00;5089427;28;20016;-78
2024/01/22 05:24:35;;;;;;;30.42;15.82;;;;;;;-4.49;98.26;102161.56;5071423;28;20427;-78
2024/01/22 05:27:03;;;;;;;27.45;14.38;;;;;;;-4.83;99.17;102159.63;5089464;28;20027;-78
2024/01/22 05:29:28;;;;;;;27.55;14.85;;;;;;;-5.05;99.59;102126.72;5077640;28;20102;-78
2024/01/22 05:31:54;;;;;;;29.90;15.45;;;;;;;-4.75;96.16;102136.72;5069716;28;20032;-78
2024/01/22 05:34:19;;;;;;;32.80;16.25;;;;;;;-4.66;96.07;102139.75;5069386;28;20032;-77
2024/01/22 05:36:44;;;;;;;29.83;15.50;;;;;;;-4.71;97.95;102120.88;5069438;28;20032;-78
2024/01/22 05:39:10;;;;;;;28.85;15.73;;;;;;;-4.38;97.23;102150.66;5060774;28;20553;-78
2024/01/22 05:41:36;;;;;;;31.80;16.42;;;;;;;-4.34;94.55;102157.41;5070771;28;20043;-79
2024/01/22 05:44:01;;;;;;;35.35;18.92;;;;;;;-4.53;95.25;102142.63;5071202;28;20024;-78
2024/01/22 05:46:27;;;;;;;32.15;17.52;;;;;;;-4.72;96.04;102126.13;5089251;28;20035;-79
2024/01/22 05:48:53;;;;;;;28.38;15.23;;;;;;;-4.51;94.64;102138.19;5087556;28;20051;-78
2024/01/22 05:51:19;;;;;;;30.15;16.42;;;;;;;-4.53;94.64;102118.34;5070926;28;20055;-78
2024/01/22 05:53:45;;;;;;;35.03;19.98;;;;;;;-4.69;96.25;102146.84;5089201;28;20035;-78
2024/01/22 05:56:25;;;;;;;33.13;16.98;;;;;;;-5.04;100.00;102136.25;5070839;28;20035;-78
2024/01/22 05:58:51;;;;;;;37.78;21.40;;;;;;;-4.88;97.25;102128.63;5086177;28;20036;-79
2024/01/22 06:01:20;;;;;;;28.88;17.13;;;;;;;-4.50;94.29;102131.22;5088636;28;20526;-78
2024/01/22 06:03:46;;;;;;;34.58;17.20;;;;;;;-4.47;95.04;102137.16;5088632;28;20040;-78
2024/01/22 06:06:12;;;;;;;31.73;16.00;;;;;;;-4.56;96.39;102116.72;5070427;28;20016;-78
2024/01/22 06:08:37;;;;;;;29.90;18.52;;;;;;;-4.31;94.40;102146.84;5070381;28;20039;-78
2024/01/22 06:11:04;;;;;;;28.92;15.30;;;;;;;-4.30;94.65;102151.16;5088323;28;20031;-78
2024/01/22 06:13:31;;;;;;;28.38;14.13;;;;;;;-4.66;96.24;102134.53;5088399;28;20051;-78
2024/01/22 06:15:57;;;;;;;32.15;15.75;;;;;;;-4.49;95.36;102153.75;5088464;28;20441;-78
2024/01/22 06:18:22;;;;;;;25.15;14.35;;;;;;;-4.39;95.39;102130.72;5087698;28;20024;-79
2024/01/22 06:20:48;;;;;;;33.80;17.40;;;;;;;-4.19;93.75;102161.91;5069241;28;20476;-78
2024/01/22 06:23:13;;;;;;;34.08;18.17;;;;;;;-4.32;96.86;102155.59;5088329;28;20073;-78
2024/01/22 06:25:38;;;;;;;51.10;30.10;;;;;;;-4.16;93.43;102148.75;5067273;28;20398;-78
2024/01/22 06:28:04;;;;;;;45.15;25.88;;;;;;;-4.56;95.07;102150.56;5050270;28;20040;-78
2024/01/22 06:30:29;;;;;;;32.92;18.13;;;;;;;-4.96;97.51;102138.50;5065956;28;20066;-78
2024/01/22 06:32:55;;;;;;;30.30;16.38;;;;;;;-4.93;98.61;102144.41;5069944;28;20102;-78
2024/01/22 06:35:20;;;;;;;37.47;18.88;;;;;;;-4.46;96.93;102136.22;5088604;28;20024;-78
2024/01/22 06:37:46;;;;;;;38.78;19.48;;;;;;;-4.09;95.65;102168.38;5068217;28;20117;-78
2024/01/22 06:40:11;;;;;;;41.50;21.77;;;;;;;-3.76;95.38;102185.97;5078001;28;20111;-78
2024/01/22 06:42:37;;;;;;;38.83;20.33;;;;;;;-3.69;95.01;102182.13;5088249;28;20032;-78
2024/01/22 06:45:03;;;;;;;32.50;17.80;;;;;;;-3.46;93.43;102180.16;5083717;28;20028;-79
2024/01/22 06:47:30;;;;;;;33.25;16.83;;;;;;;-3.41;93.83;102183.38;5076624;28;20493;-78
2024/01/22 06:49:55;;;;;;;33.95;17.80;;;;;;;-3.90;95.22;102170.13;5081710;28;20028;-78
2024/01/22 06:52:21;;;;;;;74.18;33.45;;;;;;;-3.81;95.79;102193.13;5060640;28;20030;-79
2024/01/22 06:54:46;;;;;;;42.80;20.35;;;;;;;-3.61;94.32;102178.31;5079615;28;20101;-78
2024/01/22 06:57:12;;;;;;;34.53;19.63;;;;;;;-3.32;94.51;102188.13;5078694;28;20039;-79
2024/01/22 06:59:37;;;;;;;36.92;18.85;;;;;;;-3.19;92.88;102180.53;5058024;28;20032;-78
2024/01/22 07:02:02;;;;;;;36.25;19.92;;;;;;;-3.04;90.98;102207.63;5059655;28;20035;-77
2024/01/22 07:04:28;;;;;;;44.67;22.02;;;;;;;-3.24;92.21;102188.59;5079551;28;20024;-77
2024/01/22 07:06:53;;;;;;;41.88;21.08;;;;;;;-3.44;94.06;102186.13;5069005;28;20031;-77
2024/01/22 07:09:19;;;;;;;39.75;20.40;;;;;;;-3.30;92.69;102188.06;5082655;28;20476;-78
2024/01/22 07:11:44;;;;;;;32.97;17.55;;;;;;;-3.47;92.62;102191.53;5081406;28;20036;-78
2024/01/22 07:14:09;;;;;;;30.05;16.95;;;;;;;-3.58;96.44;102163.34;5059532;28;20024;-78
2024/01/22 07:16:35;;;;;;;28.48;15.13;;;;;;;-3.28;94.23;102187.06;5074850;28;20036;-78
2024/01/22 07:19:00;;;;;;;33.00;17.23;;;;;;;-3.59;96.78;102172.09;5059680;28;20027;-78
2024/01/22 07:21:26;;;;;;;30.08;16.17;;;;;;;-3.09;94.99;102186.97;5076154;28;20174;-77
2024/01/22 07:23:52;;;;;;;31.65;17.08;;;;;;;-3.19;96.81;102179.69;5077366;28;20474;-77
2024/01/22 07:26:17;;;;;;;31.17;16.42;;;;;;;-2.91;96.36;102185.19;5074875;28;20027;-77
2024/01/22 07:28:43;;;;;;;27.92;16.00;;;;;;;-2.88;95.71;102174.59;5067048;28;20111;-76
2024/01/22 07:31:08;;;;;;;32.88;17.92;;;;;;;-2.85;96.87;102205.75;5081331;28;20031;-77
2024/01/22 07:33:33;;;;;;;35.20;18.17;;;;;;;-2.80;96.02;102181.19;5086843;28;20028;-78
2024/01/22 07:35:59;;;;;;;36.50;18.17;;;;;;;-2.44;94.81;102205.34;5087420;28;20032;-76
2024/01/22 07:38:24;;;;;;;32.17;17.92;;;;;;;-2.57;94.22;102191.28;5076613;28;20626;-78
2024/01/22 07:40:49;;;;;;;30.70;16.15;;;;;;;-2.54;93.77;102198.94;5061946;28;20028;-77
2024/01/22 07:43:15;;;;;;;29.70;16.13;;;;;;;-2.68;92.80;102207.47;5075437;28;20635;-78
2024/01/22 07:45:41;;;;;;;30.65;16.67;;;;;;;-2.62;96.17;102219.38;5078085;28;20032;-78
2024/01/22 07:48:06;;;;;;;30.48;16.52;;;;;;;-2.29;94.72;102197.63;5077654;28;20484;-77
2024/01/22 07:50:32;;;;;;;29.63;14.50;;;;;;;-2.21;91.15;102216.34;5059164;28;20070;-77
2024/01/22 07:52:57;;;;;;;25.60;14.65;;;;;;;-2.30;92.70;102201.19;5087026;28;20028;-77
2024/01/22 07:55:22;;;;;;;31.30;16.42;;;;;;;-2.05;92.51;102206.75;5068764;28;20415;-77
2024/01/22 07:57:48;;;;;;;32.00;15.63;;;;;;;-1.64;91.50;102206.19;5086799;28;20028;-76
2024/01/22 08:00:13;;;;;;;23.95;13.18;;;;;;;-1.84;88.25;102206.47;5083688;28;20421;-77
2024/01/22 08:02:39;;;;;;;26.73;15.05;;;;;;;-1.76;90.92;102188.59;5067169;28;20397;-76
2024/01/22 08:05:06;;;;;;;26.60;14.70;;;;;;;-1.58;91.38;102183.25;5049050;28;20043;-76
2024/01/22 08:07:32;;;;;;;25.73;14.75;;;;;;;-1.38;87.81;102196.03;5067479;28;20032;-78
2024/01/22 08:09:57;;;;;;;24.30;12.90;;;;;;;-1.25;87.96;102191.78;5067959;28;20056;-77
2024/01/22 08:12:23;;;;;;;26.40;11.70;;;;;;;-1.74;89.62;102171.03;5086526;28;20548;-75
2024/01/22 08:14:48;;;;;;;19.10;12.32;;;;;;;-1.42;90.18;102184.06;5086912;28;20051;-76
2024/01/22 08:17:13;;;;;;;23.50;11.55;;;;;;;-1.37;89.81;102196.88;5086689;28;20032;-77
2024/01/22 08:19:39;;;;;;;26.08;11.80;;;;;;;-1.13;88.85;102176.28;5086967;28;20058;-76
2024/01/22 08:22:04;;;;;;;23.50;12.13;;;;;;;-1.28;87.88;102176.25;5071211;28;20028;-76
2024/01/22 08:24:31;;;;;;;23.50;11.20;;;;;;;-1.29;87.28;102177.19;5066049;28;20029;-76
2024/01/22 08:26:56;;;;;;;23.73;11.75;;;;;;;-1.33;87.49;102187.91;5068739;28;20032;-77
2024/01/22 08:29:21;;;;;;;35.35;18.42;;;;;;;-0.77;86.79;102202.06;5090526;28;20028;-77
2024/01/22 08:31:47;;;;;;;26.75;14.45;;;;;;;-0.78;87.08;102199.50;5077929;28;20024;-76
2024/01/22 08:34:13;;;;;;;26.52;14.15;;;;;;;-0.82;87.83;102199.72;5052439;28;20035;-77
2024/01/22 08:36:38;;;;;;;20.73;10.50;;;;;;;-1.08;87.03;102193.41;5052176;28;20403;-77
2024/01/22 08:42:25;;;;;;;21.75;11.45;;;;;;;-0.50;85.93;102189.03;5072300;28;20595;-76
2024/01/22 08:44:51;;;;;;;19.25;10.20;;;;;;;-0.39;81.26;102221.59;5075082;28;20115;-78
2024/01/22 08:47:16;;;;;;;19.73;10.98;;;;;;;-0.45;82.58;102183.50;5063805;28;20027;-77
2024/01/22 08:49:42;;;;;;;22.65;11.15;;;;;;;-0.35;81.32;102182.00;5062970;28;20528;-78
2024/01/22 08:52:07;;;;;;;18.55;10.27;;;;;;;-0.29;82.07;102191.25;5084861;28;20081;-79
2024/01/22 08:54:33;;;;;;;15.63;9.27;;;;;;;-0.31;82.55;102199.22;5077994;28;20027;-77
2024/01/22 08:56:59;;;;;;;20.33;9.85;;;;;;;0.21;79.79;102197.72;5087308;28;20145;-77
2024/01/22 08:59:24;;;;;;;19.38;8.85;;;;;;;0.09;77.62;102188.00;5072353;28;20445;-77
2024/01/22 09:01:50;;;;;;;16.55;8.27;;;;;;;-0.01;75.73;102183.34;5073062;28;20040;-77
2024/01/22 09:04:16;;;;;;;21.75;10.27;;;;;;;0.23;79.89;102193.22;5074310;28;20105;-77
2024/01/22 09:06:42;;;;;;;18.35;10.02;;;;;;;0.25;79.80;102149.34;5073974;28;20024;-78
2024/01/22 09:09:09;;;;;;;18.50;11.20;;;;;;;0.55;74.90;102167.50;5077172;28;20033;-78
2024/01/22 09:11:35;;;;;;;18.80;8.73;;;;;;;0.48;78.51;102160.09;5081369;28;20378;-77
2024/01/22 09:14:01;;;;;;;18.60;11.25;;;;;;;0.19;77.05;102141.88;5073431;28;20473;-77
2024/01/22 09:16:27;;;;;;;16.58;8.50;;;;;;;-0.08;78.32;102153.22;5075672;28;20055;-78
2024/01/22 09:18:52;;;;;;;16.52;9.27;;;;;;;0.27;77.88;102147.47;5076605;28;20032;-78
2024/01/22 09:21:17;;;;;;;17.67;10.43;;;;;;;0.23;79.53;102160.88;5060198;28;20024;-77
2024/01/22 09:23:43;;;;;;;20.95;10.05;;;;;;;0.50;80.14;102160.84;5099389;28;20028;-78
2024/01/22 09:26:09;;;;;;;17.88;10.23;;;;;;;0.84;79.89;102161.19;5072159;28;20032;-78
2024/01/22 09:28:34;;;;;;;20.20;10.20;;;;;;;0.86;79.95;102138.28;5081883;28;20035;-79
2024/01/22 09:31:00;;;;;;;23.60;11.27;;;;;;;1.30;79.08;102137.03;5052219;28;20028;-77
2024/01/22 09:33:26;;;;;;;23.13;12.35;;;;;;;1.43;73.13;102148.38;5052536;28;20121;-78
2024/01/22 09:35:55;;;;;;;22.52;10.85;;;;;;;1.51;77.59;102148.69;5069415;28;20481;-77
2024/01/22 09:38:21;;;;;;;21.98;12.43;;;;;;;1.46;76.77;102163.94;5073341;28;20067;-77
2024/01/22 09:40:48;;;;;;;24.00;12.23;;;;;;;1.62;74.19;102147.06;5089468;28;20024;-76
2024/01/22 09:43:14;;;;;;;20.98;11.25;;;;;;;1.43;73.37;102143.13;5070308;28;20521;-77
2024/01/22 09:45:39;;;;;;;21.00;11.00;;;;;;;1.42;74.15;102136.16;5068896;28;20039;-79
2024/01/22 09:48:06;;;;;;;22.00;11.73;;;;;;;1.74;75.46;102131.25;5068701;28;20032;-77
2024/01/22 09:50:31;;;;;;;23.40;12.00;;;;;;;2.33;71.81;102135.72;5068992;28;20536;-78
2024/01/22 09:53:17;;;;;;;21.73;11.18;;;;;;;2.15;72.24;102130.03;5053562;28;20029;-77
2024/01/22 09:55:44;;;;;;;22.33;11.40;;;;;;;1.68;74.60;102108.03;5071469;28;20416;-77
2024/01/22 09:58:18;;;;;;;21.02;12.15;;;;;;;2.09;74.19;102116.50;5078491;28;20020;-77
2024/01/22 10:00:46;;;;;;;24.38;11.02;;;;;;;2.20;76.13;102122.63;5079813;28;20034;-77
2024/01/22 10:03:13;;;;;;;20.42;11.85;;;;;;;2.00;76.79;102103.06;5078871;28;20074;-77
2024/01/22 10:05:38;;;;;;;20.42;12.20;;;;;;;1.97;76.08;102076.13;5078762;28;20028;-78
2024/01/22 10:08:04;;;;;;;22.15;12.48;;;;;;;2.40;72.57;102113.25;5079371;28;20028;-77
2024/01/22 10:10:30;;;;;;;21.52;12.30;;;;;;;2.24;71.79;102056.59;5080533;28;20104;-78
2024/01/22 10:12:58;;;;;;;21.88;11.15;;;;;;;2.55;74.07;102099.88;5081250;28;20162;-77
2024/01/22 10:15:26;;;;;;;20.90;12.23;;;;;;;2.42;73.39;102087.63;5076003;28;20606;-77
2024/01/22 10:17:52;;;;;;;21.35;11.68;;;;;;;2.35;72.86;102085.56;5077611;28;20016;-77
2024/01/22 10:20:22;;;;;;;20.85;11.80;;;;;;;2.71;73.49;102068.75;5080391;28;20043;-77
2024/01/22 10:22:48;;;;;;;21.95;12.68;;;;;;;3.14;70.86;102062.78;5079725;28;20032;-77
2024/01/22 10:25:16;;;;;;;20.77;11.15;;;;;;;3.28;69.63;102074.88;5059685;28;20028;-76
2024/01/22 10:27:42;;;;;;;17.77;10.52;;;;;;;3.15;70.25;102077.66;5058303;28;20436;-77
2024/01/22 10:30:12;;;;;;;22.73;12.18;;;;;;;3.37;73.10;102070.66;5061580;28;20583;-78
2024/01/22 10:32:37;;;;;;;19.60;11.32;;;;;;;2.99;71.04;102050.81;5079280;28;20088;-78
2024/01/22 10:35:03;;;;;;;23.10;11.90;;;;;;;3.18;69.59;102051.03;5086092;28;20443;-76
2024/01/22 10:37:29;;;;;;;22.25;12.35;;;;;;;3.41;71.83;102058.91;5087994;28;20087;-76
2024/01/22 10:40:09;;;;;;;18.50;12.00;;;;;;;3.36;74.71;102038.19;5076682;28;20046;-76
2024/01/22 10:42:34;;;;;;;21.08;12.10;;;;;;;3.65;71.35;102052.63;5075813;28;20024;-76
2024/01/22 10:45:07;;;;;;;23.67;13.57;;;;;;;4.02;69.59;102050.44;5088149;28;20537;-76
2024/01/22 10:47:34;;;;;;;20.65;12.68;;;;;;;4.48;69.27;102035.19;5069786;28;20054;-76
2024/01/22 10:50:02;;;;;;;21.60;13.38;;;;;;;5.04;65.59;102045.31;5087749;28;20024;-76
2024/01/22 10:52:29;;;;;;;18.73;10.57;;;;;;;5.45;65.74;102038.19;5085607;28;20028;-75
2024/01/22 10:54:55;;;;;;;19.38;11.65;;;;;;;5.57;64.96;102042.38;5077399;28;20064;-76
2024/01/22 10:57:34;;;;;;;23.15;13.77;;;;;;;5.92;66.81;102026.94;5060822;28;20052;-77
2024/01/22 11:00:02;;;;;;;25.65;14.75;;;;;;;5.64;63.70;102037.38;5078152;28;20028;-76
2024/01/22 11:02:34;;;;;;;18.77;11.80;;;;;;;6.25;61.37;102049.50;5078668;28;20103;-77
2024/01/22 11:05:06;;;;;;;17.40;11.13;;;;;;;5.42;61.61;102041.13;5061043;28;20028;-75
2024/01/22 11:07:37;;;;;;;17.45;9.88;;;;;;;5.21;62.66;102030.59;5079784;28;20054;-75